Time;durP1;ratioP1;P1;durP2;ratioP2;P2;SDS_P1;SDS_P2;PMS_P1;PMS_P2;Temp;Humidity;BMP_temperature;BMP_pressure;BME280_temperature;BME280_humidity;BME280_pressure;Samples;Min_cycle;Max_cycle;Signal;HPM_P1;HPM_P2
2021/06/14 00:02:02;;;;;;;5.30;1.07;;;;;;;12.43;87.24;101965.13;5016215;28;20454;-71
2021/06/14 00:04:29;;;;;;;1.47;1.20;;;;;;;12.57;86.37;101963.41;5016013;28;20468;-71
2021/06/14 00:06:55;;;;;;;2.40;1.37;;;;;;;12.54;87.01;101967.50;5016105;28;20480;-71
2021/06/14 00:09:24;;;;;;;2.80;1.97;;;;;;;12.50;87.81;101980.03;5015910;28;20480;-71
2021/06/14 00:11:50;;;;;;;3.03;1.80;;;;;;;12.52;87.66;101974.31;5015634;28;20942;-71
2021/06/14 00:14:20;;;;;;;0.80;0.80;;;;;;;12.57;87.01;101964.25;5016155;28;20464;-71
2021/06/14 00:16:46;;;;;;;2.40;1.60;;;;;;;12.50;87.57;101960.19;5015916;28;20467;-71
2021/06/14 00:19:13;;;;;;;2.70;1.20;;;;;;;12.53;87.35;101962.38;5015839;28;20436;-71
2021/06/14 00:21:40;;;;;;;2.43;1.63;;;;;;;12.50;87.56;101962.91;5015753;28;20448;-71
2021/06/14 00:24:07;;;;;;;2.30;1.60;;;;;;;12.49;86.29;101958.59;5015665;28;20444;-71
2021/06/14 00:26:34;;;;;;;4.30;1.23;;;;;;;12.37;84.87;101962.44;5015707;28;20439;-71
2021/06/14 00:29:01;;;;;;;2.63;1.17;;;;;;;12.31;84.12;101957.31;5015591;28;20452;-71
2021/06/14 00:31:29;;;;;;;1.13;1.03;;;;;;;12.22;83.70;101959.78;5015253;28;20984;-71
2021/06/14 00:33:55;;;;;;;2.47;1.10;;;;;;;12.07;83.91;101966.06;5015514;28;20451;-71
2021/06/14 00:36:22;;;;;;;1.57;1.20;;;;;;;11.94;83.86;101961.22;5019478;28;20449;-71
2021/06/14 00:38:48;;;;;;;1.97;1.27;;;;;;;11.97;84.24;101951.72;5018804;28;20428;-71
2021/06/14 00:41:15;;;;;;;1.80;1.20;;;;;;;11.98;86.09;101956.06;5015434;28;20443;-71
2021/06/14 00:43:41;;;;;;;1.40;1.07;;;;;;;11.99;87.50;101955.78;5015370;28;20451;-71
2021/06/14 00:46:08;;;;;;;1.33;1.00;;;;;;;12.06;87.07;101955.50;5015281;28;20526;-71
2021/06/14 00:48:36;;;;;;;1.47;0.87;;;;;;;12.06;87.31;101958.22;5014959;28;20961;-71
2021/06/14 00:51:05;;;;;;;1.70;0.97;;;;;;;12.05;88.20;101956.59;5015149;28;20853;-71
2021/06/14 00:53:34;;;;;;;2.30;1.23;;;;;;;11.99;88.82;101955.78;5015151;28;20446;-71
2021/06/14 00:56:02;;;;;;;2.53;1.90;;;;;;;11.98;88.71;101946.00;5014804;28;20976;-70
2021/06/14 00:58:28;;;;;;;3.00;0.97;;;;;;;11.92;89.16;101954.47;5014725;28;20467;-70
2021/06/14 01:00:56;;;;;;;2.60;1.67;;;;;;;11.95;88.90;101954.69;5014103;28;20455;-71
2021/06/14 01:03:22;;;;;;;1.63;0.80;;;;;;;11.96;88.47;101959.06;5014978;28;20451;-70
2021/06/14 01:05:52;;;;;;;4.30;2.10;;;;;;;11.96;88.60;101950.09;5014573;28;21003;-71
2021/06/14 01:08:20;;;;;;;1.23;0.80;;;;;;;11.87;89.25;101947.16;5015196;28;20436;-71
2021/06/14 01:10:49;;;;;;;2.90;2.60;;;;;;;11.81;89.21;101949.00;5014766;28;20490;-71
2021/06/14 01:13:27;;;;;;;1.73;1.43;;;;;;;11.80;89.26;101941.97;5014819;28;20443;-71
2021/06/14 01:16:00;;;;;;;4.53;1.90;;;;;;;11.86;88.57;101935.47;5014744;28;20459;-71
2021/06/14 01:18:33;;;;;;;0.83;0.83;;;;;;;11.90;88.38;101943.06;5014429;28;20456;-70
2021/06/14 01:21:11;;;;;;;2.20;1.40;;;;;;;11.78;86.33;101941.44;5014448;28;20925;-71
2021/06/14 01:24:03;;;;;;;2.33;1.37;;;;;;;11.67;85.41;101937.09;5014674;28;20435;-71
2021/06/14 01:26:37;;;;;;;2.83;1.63;;;;;;;11.63;84.91;101941.47;5014635;28;20468;-70
2021/06/14 01:29:07;;;;;;;1.73;1.03;;;;;;;11.52;85.87;101932.53;5014403;28;20424;-71
2021/06/14 01:31:36;;;;;;;4.23;1.47;;;;;;;11.60;87.22;101939.31;5020787;28;20492;-70
2021/06/14 01:34:03;;;;;;;1.50;1.40;;;;;;;11.50;88.06;101931.97;5014447;28;20447;-71
2021/06/14 01:36:32;;;;;;;2.50;2.30;;;;;;;11.48;88.49;101933.34;5014114;28;20456;-71
2021/06/14 01:39:00;;;;;;;3.20;2.23;;;;;;;11.50;88.82;101926.56;5014396;28;20460;-70
2021/06/14 01:41:29;;;;;;;1.50;1.20;;;;;;;11.58;88.79;101927.91;5014154;28;20443;-71
2021/06/14 01:43:58;;;;;;;1.60;1.13;;;;;;;11.55;88.66;101923.00;5014236;28;20432;-71
2021/06/14 01:46:31;;;;;;;1.50;1.10;;;;;;;11.55;89.04;101917.59;5013933;28;20538;-71
2021/06/14 01:48:59;;;;;;;6.90;2.10;;;;;;;11.52;88.62;101918.16;5014219;28;20444;-71
2021/06/14 01:51:29;;;;;;;1.03;0.90;;;;;;;11.46;86.89;101916.53;5014127;28;20483;-71
2021/06/14 01:54:06;;;;;;;2.00;1.67;;;;;;;11.30;85.67;101919.25;5014241;28;20818;-71
2021/06/14 01:56:35;;;;;;;1.10;0.77;;;;;;;11.32;85.27;101919.78;5013967;28;20455;-71
2021/06/14 01:59:03;;;;;;;1.53;1.37;;;;;;;11.25;83.85;101921.19;5014121;28;20428;-71
2021/06/14 02:01:33;;;;;;;1.07;0.83;;;;;;;10.91;85.43;101915.47;5013841;28;20463;-71
2021/06/14 02:04:00;;;;;;;1.97;1.33;;;;;;;10.90;85.67;101920.09;5013424;28;20467;-71
2021/06/14 02:06:29;;;;;;;1.03;0.93;;;;;;;10.86;87.36;101910.88;5013914;28;20440;-71
2021/06/14 02:08:58;;;;;;;1.50;1.13;;;;;;;10.97;87.89;101914.38;5013553;28;20953;-71
2021/06/14 02:11:25;;;;;;;1.40;1.20;;;;;;;11.05;87.46;101905.72;5013741;28;20491;-71
2021/06/14 02:13:52;;;;;;;3.00;1.57;;;;;;;11.11;88.16;101902.75;5013674;28;20436;-71
2021/06/14 02:16:19;;;;;;;0.60;0.60;;;;;;;11.15;89.09;101908.41;5013120;28;20972;-71
2021/06/14 02:18:47;;;;;;;1.57;0.90;;;;;;;11.16;89.25;101906.53;5013734;28;20436;-71
2021/06/14 02:21:14;;;;;;;3.83;1.20;;;;;;;11.16;89.60;101909.25;5013343;28;20934;-71
2021/06/14 02:23:41;;;;;;;4.97;1.07;;;;;;;11.10;89.28;101917.38;5013674;28;20448;-70
2021/06/14 02:26:07;;;;;;;1.40;1.10;;;;;;;11.14;89.03;101914.94;5013578;28;20471;-71
2021/06/14 02:28:34;;;;;;;1.20;0.97;;;;;;;11.16;88.63;101903.81;5013622;28;20440;-71
2021/06/14 02:31:00;;;;;;;3.13;1.63;;;;;;;11.09;88.84;101901.38;5013704;28;20483;-71
2021/06/14 02:33:27;;;;;;;1.67;0.90;;;;;;;11.07;89.29;101906.28;5013565;28;20825;-71
2021/06/14 02:35:55;;;;;;;2.87;1.63;;;;;;;11.02;89.73;101908.97;5013452;28;20466;-71
2021/06/14 02:38:23;;;;;;;2.03;1.50;;;;;;;11.00;90.08;101905.72;5013482;28;20444;-71
2021/06/14 02:40:50;;;;;;;2.60;1.17;;;;;;;10.92;90.34;101898.94;5013489;28;20444;-71
2021/06/14 02:43:16;;;;;;;1.60;1.13;;;;;;;11.02;89.76;101906.25;5013433;28;20451;-71
2021/06/14 02:45:44;;;;;;;1.90;1.17;;;;;;;11.04;88.66;101901.38;5013371;28;20491;-71
2021/06/14 02:48:11;;;;;;;1.03;0.90;;;;;;;11.01;86.60;101893.78;5013434;28;20444;-71
2021/06/14 02:50:39;;;;;;;3.77;1.20;;;;;;;10.84;86.58;101886.72;5013302;28;20483;-71
2021/06/14 02:53:10;;;;;;;2.73;1.40;;;;;;;10.78;85.88;101882.41;5013322;28;20447;-71
2021/06/14 02:55:44;;;;;;;1.07;0.97;;;;;;;10.72;86.23;101888.09;5013234;28;20471;-72
2021/06/14 02:58:11;;;;;;;2.90;2.03;;;;;;;10.61;86.57;101884.53;5013012;28;20485;-71
2021/06/14 03:00:38;;;;;;;1.33;1.23;;;;;;;10.58;86.12;101883.19;5013329;28;20436;-71
2021/06/14 03:03:06;;;;;;;1.90;1.20;;;;;;;10.64;87.67;101880.50;5013256;28;20455;-71
2021/06/14 03:05:34;;;;;;;2.67;1.87;;;;;;;10.62;89.72;101883.44;5013198;28;20559;-71
2021/06/14 03:08:01;;;;;;;1.73;1.23;;;;;;;10.63;90.35;101885.09;5012965;28;20448;-71
2021/06/14 03:10:31;;;;;;;3.87;1.50;;;;;;;10.69;90.16;101883.19;5013401;28;20488;-71
2021/06/14 03:12:59;;;;;;;1.80;0.93;;;;;;;10.75;89.25;101882.13;5014507;28;20456;-71
2021/06/14 03:15:27;;;;;;;1.67;1.57;;;;;;;10.79;89.54;101881.31;5013103;28;20464;-71
2021/06/14 03:17:54;;;;;;;2.00;1.57;;;;;;;10.69;90.23;101881.31;5012861;28;20938;-71
2021/06/14 03:20:22;;;;;;;2.43;1.40;;;;;;;10.67;90.66;101885.34;5013089;28;20443;-71
2021/06/14 03:22:49;;;;;;;2.30;1.23;;;;;;;10.79;90.25;101875.88;5019420;28;20444;-71
2021/06/14 03:25:17;;;;;;;2.43;1.13;;;;;;;10.92;89.58;101871.00;5015666;28;20456;-71
2021/06/14 03:27:45;;;;;;;1.70;1.47;;;;;;;11.02;89.55;101876.41;5016556;28;20444;-71
2021/06/14 03:30:13;;;;;;;1.60;1.20;;;;;;;11.00;89.74;101876.72;5016724;28;20813;-71
2021/06/14 03:32:42;;;;;;;3.43;1.70;;;;;;;11.04;89.45;101879.69;5016746;28;20443;-71
2021/06/14 03:35:12;;;;;;;2.43;1.50;;;;;;;11.11;89.45;101880.22;5016315;28;20972;-71
2021/06/14 03:37:39;;;;;;;2.53;1.37;;;;;;;11.14;89.72;101881.56;5016706;28;20435;-71
2021/06/14 03:40:07;;;;;;;1.47;1.23;;;;;;;11.20;88.80;101873.19;5016572;28;20493;-71
2021/06/14 03:42:34;;;;;;;3.83;1.80;;;;;;;11.19;87.27;101874.25;5016571;28;20440;-71
2021/06/14 03:45:01;;;;;;;5.10;1.40;;;;;;;11.10;87.27;101876.69;5016455;28;20475;-71
2021/06/14 03:47:28;;;;;;;1.30;1.13;;;;;;;11.03;86.30;101878.06;5016504;28;20448;-71
2021/06/14 03:49:54;;;;;;;2.40;1.50;;;;;;;11.03;86.20;101870.75;5016408;28;20440;-71
2021/06/14 03:52:21;;;;;;;1.30;1.10;;;;;;;11.00;86.86;101876.72;5016309;28;20484;-71
2021/06/14 03:54:47;;;;;;;3.97;2.17;;;;;;;10.97;86.95;101873.72;5016268;28;20463;-71
2021/06/14 03:57:14;;;;;;;3.27;1.73;;;;;;;11.00;87.28;101884.03;5016024;28;20467;-71
2021/06/14 03:59:40;;;;;;;2.37;1.90;;;;;;;11.12;88.34;101879.16;5016218;28;20444;-71
2021/06/14 04:02:08;;;;;;;1.73;1.40;;;;;;;11.28;89.01;101878.03;5015877;28;20447;-72
2021/06/14 04:04:43;;;;;;;1.80;1.47;;;;;;;11.34;89.89;101879.66;5016127;28;20503;-72
2021/06/14 04:07:09;;;;;;;2.23;1.27;;;;;;;11.45;90.58;101866.88;5016116;28;20538;-69
2021/06/14 04:09:36;;;;;;;1.33;1.17;;;;;;;11.42;91.82;101872.88;5016029;28;20448;-72
2021/06/14 04:12:04;;;;;;;1.73;0.90;;;;;;;11.48;91.46;101879.09;5015945;28;20587;-72
2021/06/14 04:14:31;;;;;;;4.17;2.10;;;;;;;11.56;91.78;101878.53;5015845;28;20478;-72
2021/06/14 04:16:57;;;;;;;6.67;2.40;;;;;;;11.65;92.04;101876.88;5015917;28;20444;-72
2021/06/14 04:19:25;;;;;;;3.27;3.00;;;;;;;11.68;92.93;101881.72;5015905;28;20814;-72
2021/06/14 04:21:51;;;;;;;1.97;1.80;;;;;;;11.88;92.12;101882.78;5015823;28;20450;-72
2021/06/14 04:24:18;;;;;;;5.33;2.70;;;;;;;12.02;91.89;101872.94;5015699;28;20460;-72
2021/06/14 04:26:44;;;;;;;1.30;1.20;;;;;;;12.18;91.61;101873.69;5015733;28;20432;-70
2021/06/14 04:29:11;;;;;;;2.23;1.90;;;;;;;12.18;92.63;101869.06;5015689;28;20448;-70
2021/06/14 04:31:37;;;;;;;3.10;1.50;;;;;;;12.20;93.09;101875.03;5015538;28;20491;-70
2021/06/14 04:34:03;;;;;;;2.90;1.40;;;;;;;12.29;93.12;101867.91;5015555;28;20471;-70
2021/06/14 04:36:31;;;;;;;0.97;0.80;;;;;;;12.50;92.53;101851.50;5015659;28;20474;-71
2021/06/14 04:38:58;;;;;;;2.03;1.83;;;;;;;12.61;91.66;101855.75;5015511;28;20444;-70
2021/06/14 04:41:24;;;;;;;2.83;1.23;;;;;;;12.66;90.97;101866.59;5015431;28;20451;-70
2021/06/14 04:43:51;;;;;;;3.77;1.70;;;;;;;12.73;90.12;101856.19;5015127;28;20447;-71
2021/06/14 04:46:17;;;;;;;2.63;2.10;;;;;;;12.84;88.75;101855.03;5014955;28;20460;-70
2021/06/14 04:48:44;;;;;;;1.50;1.20;;;;;;;12.94;87.92;101856.03;5015044;28;20444;-71
2021/06/14 04:51:10;;;;;;;4.83;2.00;;;;;;;13.06;87.55;101860.00;5014851;28;21000;-70
2021/06/14 04:53:40;;;;;;;2.50;1.90;;;;;;;13.20;88.15;101865.59;5014883;28;20451;-70
2021/06/14 04:56:06;;;;;;;8.47;1.93;;;;;;;13.34;88.16;101861.13;5014697;28;21058;-70
2021/06/14 04:58:33;;;;;;;1.70;1.60;;;;;;;13.46;88.83;101862.63;5014993;28;20463;-71
2021/06/14 05:01:00;;;;;;;3.17;2.23;;;;;;;13.62;89.24;101866.81;5015046;28;20440;-71
2021/06/14 05:03:26;;;;;;;3.90;1.70;;;;;;;13.75;89.85;101868.81;5015000;28;20443;-71
2021/06/14 05:05:53;;;;;;;3.03;1.63;;;;;;;13.85;90.50;101871.41;5014915;28;20471;-71
2021/06/14 05:08:19;;;;;;;2.10;1.67;;;;;;;13.95;90.89;101875.13;5014877;28;20447;-71
2021/06/14 05:10:48;;;;;;;2.70;1.60;;;;;;;14.09;90.62;101881.50;5014803;28;20484;-71
2021/06/14 05:13:15;;;;;;;1.60;1.50;;;;;;;14.23;90.18;101876.94;5014840;28;20447;-71
2021/06/14 05:15:42;;;;;;;2.60;1.43;;;;;;;14.32;89.57;101877.88;5021212;28;20494;-71
2021/06/14 05:18:08;;;;;;;3.37;1.87;;;;;;;14.43;88.78;101864.09;5014780;28;20451;-72
2021/06/14 05:20:35;;;;;;;1.90;1.47;;;;;;;14.54;87.94;101871.06;5014759;28;20452;-72
2021/06/14 05:23:02;;;;;;;3.60;2.40;;;;;;;14.61;87.88;101866.88;5014381;28;20451;-71
2021/06/14 05:25:29;;;;;;;1.87;1.27;;;;;;;14.62;87.02;101879.38;5014667;28;20474;-71
2021/06/14 05:27:56;;;;;;;1.53;1.30;;;;;;;14.75;86.61;101877.03;5014290;28;20949;-70
2021/06/14 05:30:24;;;;;;;2.73;1.57;;;;;;;14.92;85.91;101876.44;5014536;28;20444;-70
2021/06/14 05:32:50;;;;;;;2.00;1.53;;;;;;;15.07;86.04;101877.00;5014135;28;21020;-70
2021/06/14 05:35:17;;;;;;;2.20;1.77;;;;;;;15.18;85.83;101880.38;5014390;28;20473;-70
2021/06/14 05:37:44;;;;;;;4.53;1.40;;;;;;;15.27;84.52;101889.50;5014421;28;20448;-71
2021/06/14 05:40:11;;;;;;;2.87;1.43;;;;;;;15.38;84.38;101882.75;5014629;28;20806;-70
2021/06/14 05:42:38;;;;;;;1.57;1.00;;;;;;;15.52;82.57;101890.13;5014251;28;20446;-70
2021/06/14 05:45:08;;;;;;;1.57;1.00;;;;;;;15.63;82.24;101888.84;5013863;28;20475;-70
2021/06/14 05:47:34;;;;;;;3.90;1.50;;;;;;;15.73;82.52;101891.38;5013795;28;20444;-70
2021/06/14 05:50:02;;;;;;;1.90;1.40;;;;;;;15.79;82.75;101894.81;5014233;28;20444;-70
2021/06/14 05:52:29;;;;;;;1.57;1.20;;;;;;;15.87;81.29;101894.94;5014150;28;20491;-70
2021/06/14 05:54:55;;;;;;;10.03;1.73;;;;;;;15.88;79.62;101899.28;5014060;28;20464;-70
2021/06/14 05:57:22;;;;;;;1.50;1.30;;;;;;;15.91;79.06;101908.00;5013942;28;20470;-69
2021/06/14 05:59:49;;;;;;;2.10;1.70;;;;;;;15.99;78.59;101905.34;5014061;28;20448;-70
2021/06/14 06:02:17;;;;;;;12.40;2.10;;;;;;;16.19;77.68;101903.28;5013964;28;20838;-70
2021/06/14 06:04:43;;;;;;;2.00;1.20;;;;;;;16.33;78.35;101901.34;5013915;28;20472;-70
2021/06/14 06:07:10;;;;;;;2.87;1.93;;;;;;;16.39;78.27;101905.59;5013930;28;20440;-70
2021/06/14 06:09:36;;;;;;;2.73;1.20;;;;;;;16.40;77.78;101902.53;5013585;28;20507;-70
2021/06/14 06:12:03;;;;;;;3.77;1.50;;;;;;;16.55;78.35;101901.38;5013453;28;20996;-70
2021/06/14 06:14:29;;;;;;;2.83;1.10;;;;;;;16.67;78.57;101908.22;5013767;28;20464;-70
2021/06/14 06:16:56;;;;;;;4.03;1.33;;;;;;;16.69;77.08;101901.34;5013799;28;20449;-70
2021/06/14 06:19:24;;;;;;;2.33;1.83;;;;;;;16.82;74.27;101895.03;5014057;28;20448;-70
2021/06/14 06:21:50;;;;;;;1.87;1.40;;;;;;;16.92;74.59;101896.72;5013712;28;20443;-70
2021/06/14 06:24:17;;;;;;;1.30;1.10;;;;;;;17.02;73.27;101884.69;5013616;28;20464;-70
2021/06/14 06:26:43;;;;;;;1.27;1.10;;;;;;;17.10;72.99;101886.69;5013653;28;20452;-71
2021/06/14 06:29:10;;;;;;;2.00;1.43;;;;;;;17.19;72.74;101894.94;5013638;28;20821;-72
2021/06/14 06:31:36;;;;;;;4.20;1.40;;;;;;;17.20;72.42;101889.16;5013210;28;20494;-72
2021/06/14 06:34:03;;;;;;;2.43;1.63;;;;;;;17.28;71.47;101890.31;5013571;28;20455;-73
2021/06/14 06:36:31;;;;;;;2.90;1.30;;;;;;;17.39;71.63;101891.66;5013500;28;20444;-72
2021/06/14 06:38:57;;;;;;;2.67;1.30;;;;;;;17.44;71.99;101887.97;5013428;28;20942;-73
2021/06/14 06:41:24;;;;;;;5.97;2.10;;;;;;;17.53;70.90;101889.66;5013252;28;20934;-72
2021/06/14 06:43:50;;;;;;;4.00;2.00;;;;;;;17.61;71.79;101890.78;5013272;28;20439;-73
2021/06/14 06:46:17;;;;;;;4.93;1.53;;;;;;;17.63;71.40;101883.88;5013402;28;20495;-72
2021/06/14 06:48:43;;;;;;;2.87;1.97;;;;;;;17.71;70.12;101893.25;5013476;28;20534;-72
2021/06/14 06:51:11;;;;;;;8.53;2.23;;;;;;;17.77;70.43;101892.00;5013340;28;20444;-72
2021/06/14 06:53:38;;;;;;;4.20;1.67;;;;;;;17.87;69.15;101882.69;5013375;28;20516;-72
2021/06/14 06:56:05;;;;;;;2.67;1.70;;;;;;;17.94;69.05;101880.28;5013328;28;20464;-72
2021/06/14 06:58:32;;;;;;;1.67;1.10;;;;;;;17.99;69.51;101879.34;5013266;28;20455;-72
2021/06/14 07:00:58;;;;;;;2.23;1.20;;;;;;;17.98;69.37;101881.28;5017610;28;20436;-72
2021/06/14 07:03:25;;;;;;;2.80;0.90;;;;;;;18.08;69.43;101874.66;5017528;28;20466;-72
2021/06/14 07:05:53;;;;;;;2.60;1.27;;;;;;;18.20;68.94;101871.31;5017206;28;20459;-72
2021/06/14 07:08:19;;;;;;;1.37;0.90;;;;;;;18.29;66.94;101870.19;5017485;28;20440;-72
2021/06/14 07:10:47;;;;;;;1.80;1.10;;;;;;;18.39;66.89;101869.06;5023721;28;20517;-72
2021/06/14 07:13:16;;;;;;;3.90;1.47;;;;;;;18.40;70.57;101862.44;5017036;28;20484;-72
2021/06/14 07:15:43;;;;;;;3.60;1.30;;;;;;;18.48;68.76;101866.31;5017013;28;20831;-72
2021/06/14 07:18:09;;;;;;;7.77;1.93;;;;;;;18.58;67.19;101864.03;5017256;28;20443;-73
2021/06/14 07:20:36;;;;;;;1.43;1.07;;;;;;;18.69;66.64;101853.56;5016708;28;20815;-73
2021/06/14 07:23:02;;;;;;;1.17;1.03;;;;;;;18.78;64.98;101857.13;5016922;28;20785;-73
2021/06/14 07:25:28;;;;;;;3.00;1.30;;;;;;;18.85;64.99;101868.38;5016774;28;20870;-73
2021/06/14 07:27:56;;;;;;;4.83;1.63;;;;;;;18.85;63.74;101864.84;5016528;28;21204;-73
2021/06/14 07:30:23;;;;;;;2.93;1.23;;;;;;;18.86;63.86;101867.28;5016336;28;20940;-73
2021/06/14 07:32:49;;;;;;;2.37;1.57;;;;;;;18.85;62.96;101865.66;5016689;28;20480;-73
2021/06/14 07:35:16;;;;;;;1.40;0.90;;;;;;;19.00;62.54;101867.09;5016514;28;20470;-74
2021/06/14 07:37:42;;;;;;;1.30;1.13;;;;;;;19.11;61.92;101864.78;5016638;28;20443;-73
2021/06/14 07:40:10;;;;;;;2.23;0.90;;;;;;;19.14;61.04;101861.41;5016653;28;20451;-73
2021/06/14 07:42:36;;;;;;;3.43;1.40;;;;;;;19.16;64.21;101859.13;5016539;28;20444;-70
2021/06/14 07:45:05;;;;;;;1.93;1.13;;;;;;;19.10;63.51;101861.25;5016436;28;20467;-74
2021/06/14 07:47:31;;;;;;;8.13;1.20;;;;;;;19.20;65.82;101865.56;5016157;28;20452;-73
2021/06/14 07:49:58;;;;;;;2.10;1.13;;;;;;;19.31;62.64;101860.53;5016447;28;20448;-73
2021/06/14 07:52:24;;;;;;;3.27;0.80;;;;;;;19.40;61.05;101862.09;5016316;28;20491;-73
2021/06/14 07:54:51;;;;;;;3.13;1.40;;;;;;;19.51;59.48;101867.22;5016193;28;20474;-72
2021/06/14 07:57:17;;;;;;;1.70;1.13;;;;;;;19.51;59.18;101864.47;5016287;28;20808;-73
2021/06/14 07:59:43;;;;;;;1.43;1.10;;;;;;;19.49;60.84;101853.03;5016355;28;20444;-71
2021/06/14 08:02:12;;;;;;;1.77;1.37;;;;;;;19.54;60.46;101848.13;5016444;28;20436;-72
2021/06/14 08:04:39;;;;;;;2.70;1.60;;;;;;;19.54;60.36;101836.34;5016085;28;20460;-72
2021/06/14 08:07:06;;;;;;;1.60;0.93;;;;;;;19.53;58.47;101830.03;5016352;28;20467;-73
2021/06/14 08:09:32;;;;;;;2.80;1.10;;;;;;;19.58;60.08;101837.28;5015673;28;20448;-72
2021/06/14 08:11:59;;;;;;;1.17;1.03;;;;;;;19.61;60.69;101831.16;5015888;28;20479;-73
2021/06/14 08:14:26;;;;;;;3.90;1.50;;;;;;;19.52;62.66;101836.69;5015941;28;20460;-71
2021/06/14 08:16:53;;;;;;;3.50;1.17;;;;;;;19.49;63.60;101839.28;5015908;28;20794;-72
2021/06/14 08:19:30;;;;;;;2.77;1.50;;;;;;;19.59;61.08;101833.41;5015584;28;20436;-72
2021/06/14 08:27:21;;;;;;;3.87;1.30;;;;;;;19.78;58.86;101830.25;5016021;28;20463;-72
2021/06/14 08:29:48;;;;;;;1.63;1.50;;;;;;;19.84;59.27;101835.22;5015505;28;20439;-72
2021/06/14 08:32:14;;;;;;;2.70;1.60;;;;;;;19.96;58.53;101819.94;5015591;28;20499;-72
2021/06/14 08:34:42;;;;;;;3.23;1.23;;;;;;;20.06;57.70;101825.06;5015500;28;20468;-72
2021/06/14 08:37:08;;;;;;;5.53;1.47;;;;;;;20.08;57.02;101822.75;5015798;28;20440;-72
2021/06/14 08:39:35;;;;;;;4.93;1.80;;;;;;;20.17;57.41;101821.56;5015546;28;20464;-72
2021/06/14 08:42:01;;;;;;;1.97;1.30;;;;;;;20.21;56.08;101821.69;5015173;28;20440;-71
2021/06/14 08:44:29;;;;;;;1.13;0.73;;;;;;;20.20;56.04;101811.84;5015376;28;20901;-72
2021/06/14 08:46:57;;;;;;;2.10;1.17;;;;;;;20.15;57.58;101807.34;5015421;28;20439;-72
2021/06/14 08:49:25;;;;;;;4.67;1.27;;;;;;;20.20;60.98;101811.03;5015097;28;20452;-71
2021/06/14 08:51:54;;;;;;;1.17;1.03;;;;;;;20.19;61.67;101806.66;5015199;28;20466;-72
2021/06/14 08:54:21;;;;;;;2.23;1.20;;;;;;;20.21;57.43;101805.19;5015393;28;20871;-71
2021/06/14 08:56:48;;;;;;;2.60;1.40;;;;;;;20.38;56.37;101812.50;5015100;28;20460;-71
2021/06/14 08:59:14;;;;;;;0.93;0.80;;;;;;;20.44;56.60;101802.06;5015221;28;20428;-71
2021/06/14 09:01:40;;;;;;;1.70;1.10;;;;;;;20.53;55.31;101800.06;5015099;28;20444;-72
2021/06/14 09:04:07;;;;;;;3.03;1.10;;;;;;;20.61;54.96;101793.66;5014960;28;20459;-71
2021/06/14 09:06:33;;;;;;;2.10;0.93;;;;;;;20.74;54.83;101794.50;5024935;28;20455;-72
2021/06/14 09:09:04;;;;;;;1.90;1.10;;;;;;;20.88;53.01;101800.50;5015276;28;20448;-72
2021/06/14 09:11:32;;;;;;;1.23;0.83;;;;;;;20.97;52.99;101792.16;5015011;28;20439;-72
2021/06/14 09:14:00;;;;;;;1.57;1.00;;;;;;;21.05;51.31;101792.03;5016110;28;20491;-72
2021/06/14 09:16:31;;;;;;;3.80;1.40;;;;;;;21.07;50.88;101792.53;5014908;28;20445;-71
2021/06/14 09:18:57;;;;;;;1.27;0.80;;;;;;;21.12;49.74;101786.78;5014849;28;20475;-71
2021/06/14 09:21:27;;;;;;;2.37;1.37;;;;;;;21.08;50.42;101785.84;5014165;28;20459;-72
2021/06/14 09:23:56;;;;;;;2.23;1.10;;;;;;;21.12;51.24;101780.47;5014639;28;20432;-71
2021/06/14 09:26:27;;;;;;;2.60;0.93;;;;;;;21.19;52.31;101766.91;5014636;28;20439;-72
2021/06/14 09:28:55;;;;;;;1.57;1.10;;;;;;;21.32;51.07;101771.28;5014646;28;20448;-72
2021/06/14 09:31:23;;;;;;;1.60;1.10;;;;;;;21.37;49.73;101770.25;5014498;28;20539;-71
2021/06/14 09:33:49;;;;;;;0.87;0.70;;;;;;;21.29;52.68;101758.16;5014475;28;20488;-71
2021/06/14 09:36:17;;;;;;;1.07;0.77;;;;;;;21.35;50.63;101762.34;5014459;28;20839;-72
2021/06/14 09:38:44;;;;;;;1.43;1.00;;;;;;;21.37;48.87;101757.28;5014429;28;20526;-72
2021/06/14 09:41:14;;;;;;;1.17;1.07;;;;;;;21.43;51.79;101755.13;5014433;28;20473;-72
2021/06/14 09:43:44;;;;;;;2.03;1.10;;;;;;;21.53;50.56;101753.84;5014042;28;20471;-72
2021/06/14 09:46:25;;;;;;;1.07;0.97;;;;;;;21.55;51.00;101751.50;5014242;28;20467;-72
2021/06/14 09:48:51;;;;;;;2.07;1.40;;;;;;;21.62;51.30;101744.28;5014006;28;20876;-71
2021/06/14 09:51:19;;;;;;;1.00;0.80;;;;;;;21.79;48.48;101745.16;5014222;28;20444;-71
2021/06/14 09:53:48;;;;;;;1.30;1.20;;;;;;;21.87;47.32;101733.19;5013806;28;20495;-71
2021/06/14 09:56:17;;;;;;;2.60;1.00;;;;;;;21.89;47.83;101736.38;5013936;28;20487;-71
2021/06/14 09:58:46;;;;;;;14.67;1.60;;;;;;;21.89;48.77;101734.44;5014125;28;20447;-71
2021/06/14 10:01:13;;;;;;;1.60;1.00;;;;;;;21.94;50.28;101724.31;5014099;28;20451;-72
2021/06/14 10:03:42;;;;;;;4.00;0.90;;;;;;;22.05;49.53;101722.66;5014016;28;20843;-72
2021/06/14 10:06:09;;;;;;;14.53;1.50;;;;;;;22.07;48.22;101723.91;5013923;28;20464;-71
2021/06/14 10:08:36;;;;;;;1.23;1.07;;;;;;;22.08;48.64;101719.97;5013958;28;20448;-71
2021/06/14 10:11:06;;;;;;;1.70;0.60;;;;;;;22.15;48.58;101702.84;5013942;28;20451;-72
2021/06/14 10:13:33;;;;;;;3.00;1.10;;;;;;;22.30;48.70;101696.56;5013791;28;20538;-72
2021/06/14 10:16:03;;;;;;;1.53;0.97;;;;;;;22.42;49.61;101699.25;5013807;28;20463;-71
2021/06/14 10:18:35;;;;;;;2.30;1.40;;;;;;;22.33;48.27;101701.38;5013725;28;20440;-71
2021/06/14 10:21:02;;;;;;;1.30;1.00;;;;;;;22.28;48.30;101698.09;5013854;28;20475;-71
2021/06/14 10:23:29;;;;;;;1.53;0.70;;;;;;;22.25;47.79;101696.81;5013639;28;20472;-69
2021/06/14 10:25:58;;;;;;;3.77;1.13;;;;;;;22.40;47.15;101703.50;5013701;28;20475;-71
2021/06/14 10:28:25;;;;;;;0.83;0.70;;;;;;;22.52;46.84;101694.34;5013725;28;20452;-71
2021/06/14 10:30:52;;;;;;;2.73;1.20;;;;;;;22.64;48.04;101695.06;5013836;28;20471;-71
2021/06/14 10:33:25;;;;;;;1.17;0.73;;;;;;;22.67;47.50;101693.56;5013046;28;20614;-71
2021/06/14 10:35:56;;;;;;;2.20;0.77;;;;;;;22.71;47.14;101688.94;5013515;28;20479;-72
2021/06/14 10:38:23;;;;;;;1.53;0.80;;;;;;;22.86;45.89;101685.34;5013453;28;20440;-72
2021/06/14 10:40:53;;;;;;;1.00;0.90;;;;;;;22.98;45.90;101678.97;5013516;28;20445;-71
2021/06/14 10:43:25;;;;;;;4.53;0.90;;;;;;;22.91;44.90;101668.53;5013140;28;20945;-71
2021/06/14 10:45:52;;;;;;;1.27;1.00;;;;;;;22.92;46.62;101663.81;5013315;28;20855;-71
2021/06/14 10:48:26;;;;;;;0.90;0.80;;;;;;;23.13;47.62;101669.84;5013408;28;20820;-69
2021/06/14 10:50:54;;;;;;;3.27;1.00;;;;;;;23.42;45.89;101665.75;5013475;28;20428;-71
2021/06/14 10:53:25;;;;;;;4.20;0.90;;;;;;;23.68;45.90;101656.00;5013335;28;20902;-72
2021/06/14 10:55:52;;;;;;;1.67;1.10;;;;;;;23.89;44.43;101650.91;5013316;28;20460;-72
2021/06/14 10:58:20;;;;;;;2.50;0.70;;;;;;;24.10;44.90;101644.19;5013244;28;20459;-73
2021/06/14 11:00:59;;;;;;;1.70;1.00;;;;;;;24.16;42.30;101648.25;5013600;28;20444;-70
2021/06/14 11:03:37;;;;;;;1.57;1.13;;;;;;;24.25;44.65;101639.69;5019829;28;20407;-71
2021/06/14 11:06:15;;;;;;;1.20;0.87;;;;;;;24.39;44.36;101642.72;5013584;28;20471;-71
2021/06/14 11:08:41;;;;;;;4.00;1.20;;;;;;;24.57;43.81;101640.25;5014161;28;20435;-71
2021/06/14 11:11:09;;;;;;;1.73;1.10;;;;;;;24.79;44.26;101638.63;5012465;28;20972;-72
2021/06/14 11:13:47;;;;;;;2.03;1.10;;;;;;;24.89;44.56;101640.78;5001857;28;20491;-72
2021/06/14 11:16:13;;;;;;;1.43;0.90;;;;;;;25.00;43.61;101635.38;5012352;28;20463;-72
2021/06/14 11:18:41;;;;;;;3.47;1.10;;;;;;;25.44;41.41;101638.38;5010995;28;20494;-71
2021/06/14 11:21:10;;;;;;;1.03;0.93;;;;;;;26.30;41.51;101633.81;5012890;28;20448;-71
2021/06/14 11:23:38;;;;;;;1.63;0.80;;;;;;;27.33;40.03;101626.19;5013386;28;20440;-68
2021/06/14 11:26:05;;;;;;;1.37;1.20;;;;;;;27.63;37.96;101625.13;5013043;28;20499;-69
2021/06/14 11:28:34;;;;;;;1.43;0.97;;;;;;;27.92;37.02;101626.81;5013066;28;20450;-70
2021/06/14 11:31:01;;;;;;;1.37;0.90;;;;;;;28.51;37.19;101626.50;5013281;28;20524;-70
2021/06/14 11:33:30;;;;;;;1.00;0.90;;;;;;;29.27;36.73;101630.75;5012765;28;20865;-72